Portada
METAR-TAF:

METAR-TAF

Aeroports :

Dhahran, Aràbia Saudita

latitud: 26-16N, longitud: 050-09E, altitud: 26 m

Observació

L'informe es va fer fa 31 minuts, a les 12:00 UTC
Vent 15 kt del Nord/Nord-Est
Temperatura 46°C
Humitat 9%
Pressió 991 hPa
Visibilitat 10 km o més
sense núvols per sota de 1500 mi sense presència de cumulonimbus.

METAR: OEDR 241200Z 03015KT CAVOK 46/05 Q0991

Hora: 15:31 (12:31 UTC)

Pronòstic

L'informe es va fer fa 2 hores i 46 minuts, a les 09:45 UTC
Pronòstic vàlid del 24 a les 12 UTC al 25 a les 18 UTC
Vent 18 kt del Nord
Visibilitat 10 km o més
sense núvols per sota de 1500 mi sense presència de cumulonimbus.
Evolucionant progressivament
l' 24 a les 20 UTC al 24 a les 22 UTC
Vent 8 kt del Oest
Evolucionant progressivament
l' 25 a les 04 UTC al 25 a les 06 UTC
Vent 15 kt del Nord/Nord-Oest

TAF: OEDR 240945Z 2412/2518 36018KT CAVOK BECMG 2420/2422 26008KT BECMG 2504/2506 34015KT

Observacions i pronòstics meteorològics de més de 4000 aeroports (METAR i TAF).

Les estacions disponibles són els punts grocs i vermells al mapa.

Posi el ratolí al punt desitjat per veure el nom de l'estació.

Feu clic per veure les observacions i els pronòstics meteorològics.

Per canviar el mapa: feu clic els botons verds amb una creu de color negre per apropar; al botó verd amb un guió per allunyar la imatge; o en les fletxes verdes per a mapes adjacents.


METAR-TAF: